South Collingham, United Kingdom
Current Conditions -  °F | °C
As of 1:50 PM on Wednesday 28 Jan 2015 (Local Time) from EGXW Reporting Station
Rain Showers Rain Showers  
Wind Chill:   Ceiling: Unl
Heat Index:   Visibility: 6mi
Dew Point: -2°   Wind: 25mph
Humidity: 57%   Direction: 280°W
Pressure: 29.38"   Gusts: 40mph
Location:  53.13°N, 0.77°W
Report Text: EGXW 281350Z 28022G35KT 9999 VCSH SCT033 06/M02 Q0995 BLU TEMPO 4000 SHRASN BKN012CB GRN
Loading
Personal Weather Stations






























Interactive Weather Map New forecast layout! Learn more

10-Day Weather Forecast

Advertisements
Track Severe Weather on mobile